Airfield :
LOGIN :

Register | Disclaimer

   EN    FR    IT 

 










Legend :    VFR   Marginal VFR   IFR   Intensive IFR   Very Intensive IFR
Visi :
Ceiling :
>= 8 km
>= 3000ft
5 to 8 km
1000 to 3000 ft
1500m to 5 km
500 to 1000 ft
800 to 1500m
200 to 500 ft
< 800m
< 200 ft
Symbols :   Thunderstorms  Fog  Heavy snow  Heavy precipitations  Wind > 20 kt
SIGMETs :     Misc.  Thunderstorms  Icing  Turbulence  Mountain Waves  Volcanic Ashes






- Airport Elevation : 425 ft
- IATA code : DTM


EDLW - Dortmund

CURRENT METAR :
  • 031350Z 03004KT 330V060 9999 SCT038 18/10 Q1012

EXPIRED METARs :
  • 031320Z 04004KT 360V090 9999 BKN038 18/11 Q1012
  • 031250Z 10005KT 9999 FEW012 OVC039 18/10 Q1013
  • 031220Z 12006KT 9999 FEW032 BKN045 17/10 Q1013
  • 031150Z 05005KT 340V110 9999 FEW014 BKN033 17/13 Q1013
  • 031120Z 03005KT 9999 FEW011 SCT042 17/12 Q1013

TAF TAF EDLW
Valid from the 03 at 12:00 until the 04 at 12:00 UTC


031100Z 0312/0412 VRB03KT 9999 BKN030
TEMPO 0312/0318 01005KT SHRA BKN025CB
PROB30
TEMPO 0404/0407 4000 BR BKN008
TEMPO 0410/0412 SHRA BKN014CB



MET'MAP, your aeronautical weather chart ! - Copyright ORBIFLY December 2007 - Disclaimer

ORBIFLY MET'MAP TEAM :

Programming & Development : Alexandra Zaïnal
Concept & original design : Baudouin d'Aumeries
Assistance for programming : Marc-Olivier Méhu
Technical & hardware support : Manuel Goepfert

Contact : metmap@orbifly.com




SOURCES & CREDITS :

   NOAA